sensor_id;sensor_type;location;lat;lon;timestamp;P1;durP1;ratioP1;P2;durP2;ratioP2
17566;SDS011;8901;52.088;5.084;2022-12-29T00:00:07;8.63;;;8.13;;
17566;SDS011;8901;52.088;5.084;2022-12-29T00:02:36;8.50;;;8.00;;
17566;SDS011;8901;52.088;5.084;2022-12-29T00:05:04;8.93;;;8.30;;
17566;SDS011;8901;52.088;5.084;2022-12-29T00:07:32;8.07;;;7.67;;
17566;SDS011;8901;52.088;5.084;2022-12-29T00:09:59;8.30;;;7.90;;
17566;SDS011;8901;52.088;5.084;2022-12-29T00:12:27;8.50;;;8.00;;
17566;SDS011;8901;52.088;5.084;2022-12-29T00:15:14;9.10;;;8.60;;
17566;SDS011;8901;52.088;5.084;2022-12-29T00:18:01;9.10;;;8.57;;
17566;SDS011;8901;52.088;5.084;2022-12-29T00:20:28;9.13;;;8.63;;
17566;SDS011;8901;52.088;5.084;2022-12-29T00:23:14;8.83;;;8.23;;
17566;SDS011;8901;52.088;5.084;2022-12-29T00:26:02;9.67;;;8.90;;
17566;SDS011;8901;52.088;5.084;2022-12-29T00:28:48;8.97;;;8.43;;
17566;SDS011;8901;52.088;5.084;2022-12-29T00:31:35;9.70;;;9.00;;
17566;SDS011;8901;52.088;5.084;2022-12-29T00:34:22;9.00;;;8.43;;
17566;SDS011;8901;52.088;5.084;2022-12-29T00:37:07;9.13;;;8.60;;
17566;SDS011;8901;52.088;5.084;2022-12-29T00:39:36;10.10;;;9.50;;
17566;SDS011;8901;52.088;5.084;2022-12-29T00:42:21;9.07;;;8.57;;
17566;SDS011;8901;52.088;5.084;2022-12-29T00:45:06;9.53;;;9.03;;
17566;SDS011;8901;52.088;5.084;2022-12-29T00:47:34;10.10;;;9.27;;
17566;SDS011;8901;52.088;5.084;2022-12-29T00:50:03;9.57;;;8.97;;
17566;SDS011;8901;52.088;5.084;2022-12-29T00:52:30;9.60;;;9.00;;
17566;SDS011;8901;52.088;5.084;2022-12-29T00:54:57;9.57;;;8.93;;
17566;SDS011;8901;52.088;5.084;2022-12-29T00:57:24;9.80;;;9.20;;
17566;SDS011;8901;52.088;5.084;2022-12-29T00:59:52;9.63;;;9.03;;
17566;SDS011;8901;52.088;5.084;2022-12-29T01:02:33;9.77;;;9.17;;
17566;SDS011;8901;52.088;5.084;2022-12-29T01:05:00;8.83;;;8.37;;
17566;SDS011;8901;52.088;5.084;2022-12-29T01:13:18;8.53;;;8.03;;
17566;SDS011;8901;52.088;5.084;2022-12-29T01:15:57;8.17;;;7.67;;
17566;SDS011;8901;52.088;5.084;2022-12-29T01:21:37;7.60;;;7.20;;
17566;SDS011;8901;52.088;5.084;2022-12-29T01:24:04;7.60;;;7.20;;
17566;SDS011;8901;52.088;5.084;2022-12-29T01:26:33;7.40;;;6.90;;
17566;SDS011;8901;52.088;5.084;2022-12-29T01:32:00;7.03;;;6.63;;
17566;SDS011;8901;52.088;5.084;2022-12-29T01:34:30;7.20;;;6.80;;
17566;SDS011;8901;52.088;5.084;2022-12-29T01:45:51;6.60;;;6.20;;
17566;SDS011;8901;52.088;5.084;2022-12-29T01:48:28;7.20;;;6.70;;
17566;SDS011;8901;52.088;5.084;2022-12-29T01:50:56;7.50;;;7.00;;
17566;SDS011;8901;52.088;5.084;2022-12-29T01:53:37;7.30;;;6.90;;
17566;SDS011;8901;52.088;5.084;2022-12-29T01:56:06;6.87;;;6.47;;
17566;SDS011;8901;52.088;5.084;2022-12-29T02:10:35;7.63;;;7.23;;
17566;SDS011;8901;52.088;5.084;2022-12-29T02:15:45;7.43;;;6.93;;
17566;SDS011;8901;52.088;5.084;2022-12-29T02:21:28;7.30;;;6.80;;
17566;SDS011;8901;52.088;5.084;2022-12-29T02:24:06;7.63;;;7.23;;
17566;SDS011;8901;52.088;5.084;2022-12-29T02:26:46;7.47;;;6.87;;
17566;SDS011;8901;52.088;5.084;2022-12-29T02:32:09;8.40;;;7.70;;
17566;SDS011;8901;52.088;5.084;2022-12-29T02:34:41;8.03;;;7.50;;
17566;SDS011;8901;52.088;5.084;2022-12-29T02:37:16;8.60;;;7.90;;
17566;SDS011;8901;52.088;5.084;2022-12-29T02:39:47;7.73;;;7.23;;
17566;SDS011;8901;52.088;5.084;2022-12-29T02:42:20;8.23;;;7.63;;
17566;SDS011;8901;52.088;5.084;2022-12-29T02:47:47;8.70;;;8.07;;
17566;SDS011;8901;52.088;5.084;2022-12-29T02:50:17;8.13;;;7.67;;
17566;SDS011;8901;52.088;5.084;2022-12-29T02:52:46;8.27;;;7.60;;
17566;SDS011;8901;52.088;5.084;2022-12-29T02:55:14;8.53;;;7.93;;
17566;SDS011;8901;52.088;5.084;2022-12-29T02:57:41;8.00;;;7.60;;
17566;SDS011;8901;52.088;5.084;2022-12-29T03:00:09;9.07;;;8.27;;
17566;SDS011;8901;52.088;5.084;2022-12-29T03:02:40;9.10;;;8.40;;
17566;SDS011;8901;52.088;5.084;2022-12-29T03:05:18;8.30;;;7.80;;
17566;SDS011;8901;52.088;5.084;2022-12-29T03:07:51;8.90;;;8.30;;
17566;SDS011;8901;52.088;5.084;2022-12-29T03:10:24;9.10;;;8.47;;
17566;SDS011;8901;52.088;5.084;2022-12-29T03:12:56;7.90;;;7.37;;
17566;SDS011;8901;52.088;5.084;2022-12-29T03:15:44;9.13;;;8.57;;
17566;SDS011;8901;52.088;5.084;2022-12-29T03:18:29;9.17;;;8.27;;
17566;SDS011;8901;52.088;5.084;2022-12-29T03:21:02;9.27;;;8.53;;
17566;SDS011;8901;52.088;5.084;2022-12-29T03:23:30;9.70;;;9.10;;
17566;SDS011;8901;52.088;5.084;2022-12-29T03:25:59;9.10;;;8.50;;
17566;SDS011;8901;52.088;5.084;2022-12-29T03:28:29;9.27;;;8.67;;
17566;SDS011;8901;52.088;5.084;2022-12-29T03:30:59;10.10;;;9.30;;
17566;SDS011;8901;52.088;5.084;2022-12-29T03:33:27;9.70;;;9.10;;
17566;SDS011;8901;52.088;5.084;2022-12-29T03:35:57;10.20;;;9.60;;
17566;SDS011;8901;52.088;5.084;2022-12-29T03:38:27;9.73;;;9.03;;
17566;SDS011;8901;52.088;5.084;2022-12-29T03:40:56;8.87;;;8.37;;
17566;SDS011;8901;52.088;5.084;2022-12-29T03:43:25;9.03;;;8.53;;
17566;SDS011;8901;52.088;5.084;2022-12-29T03:45:53;8.93;;;8.43;;
17566;SDS011;8901;52.088;5.084;2022-12-29T03:48:22;9.20;;;8.70;;
17566;SDS011;8901;52.088;5.084;2022-12-29T03:50:49;9.50;;;8.80;;
17566;SDS011;8901;52.088;5.084;2022-12-29T03:53:19;9.73;;;9.03;;
17566;SDS011;8901;52.088;5.084;2022-12-29T03:55:47;9.60;;;9.00;;
17566;SDS011;8901;52.088;5.084;2022-12-29T03:58:15;9.83;;;9.23;;
17566;SDS011;8901;52.088;5.084;2022-12-29T04:00:42;10.47;;;9.77;;
17566;SDS011;8901;52.088;5.084;2022-12-29T04:03:09;10.17;;;9.37;;
17566;SDS011;8901;52.088;5.084;2022-12-29T04:05:36;10.00;;;9.20;;
17566;SDS011;8901;52.088;5.084;2022-12-29T04:08:04;9.07;;;8.57;;
17566;SDS011;8901;52.088;5.084;2022-12-29T04:10:31;9.90;;;8.90;;
17566;SDS011;8901;52.088;5.084;2022-12-29T04:12:59;9.43;;;8.83;;
17566;SDS011;8901;52.088;5.084;2022-12-29T04:15:27;9.97;;;9.20;;
17566;SDS011;8901;52.088;5.084;2022-12-29T04:17:54;10.17;;;9.33;;
17566;SDS011;8901;52.088;5.084;2022-12-29T04:20:21;9.60;;;9.00;;
17566;SDS011;8901;52.088;5.084;2022-12-29T04:23:06;10.20;;;9.23;;
17566;SDS011;8901;52.088;5.084;2022-12-29T04:25:33;9.70;;;9.10;;
17566;SDS011;8901;52.088;5.084;2022-12-29T04:28:02;10.50;;;9.63;;
17566;SDS011;8901;52.088;5.084;2022-12-29T04:30:30;10.53;;;9.63;;
17566;SDS011;8901;52.088;5.084;2022-12-29T04:32:57;11.50;;;10.67;;
17566;SDS011;8901;52.088;5.084;2022-12-29T04:35:24;11.10;;;10.27;;
17566;SDS011;8901;52.088;5.084;2022-12-29T04:37:51;11.80;;;10.90;;
17566;SDS011;8901;52.088;5.084;2022-12-29T04:40:19;10.90;;;10.00;;
17566;SDS011;8901;52.088;5.084;2022-12-29T04:42:46;11.10;;;10.30;;
17566;SDS011;8901;52.088;5.084;2022-12-29T04:45:14;10.67;;;9.77;;
17566;SDS011;8901;52.088;5.084;2022-12-29T04:47:42;10.93;;;10.10;;
17566;SDS011;8901;52.088;5.084;2022-12-29T04:50:09;10.87;;;10.00;;
17566;SDS011;8901;52.088;5.084;2022-12-29T04:52:36;11.33;;;10.27;;
17566;SDS011;8901;52.088;5.084;2022-12-29T04:55:04;11.07;;;10.17;;
17566;SDS011;8901;52.088;5.084;2022-12-29T04:57:31;11.53;;;10.60;;
17566;SDS011;8901;52.088;5.084;2022-12-29T04:59:59;10.40;;;9.73;;
17566;SDS011;8901;52.088;5.084;2022-12-29T05:02:27;10.87;;;9.90;;
17566;SDS011;8901;52.088;5.084;2022-12-29T05:04:55;10.07;;;9.27;;
17566;SDS011;8901;52.088;5.084;2022-12-29T05:07:22;10.70;;;9.90;;
17566;SDS011;8901;52.088;5.084;2022-12-29T05:09:50;11.57;;;10.50;;
17566;SDS011;8901;52.088;5.084;2022-12-29T05:12:17;11.30;;;9.30;;
17566;SDS011;8901;52.088;5.084;2022-12-29T05:14:44;12.20;;;10.07;;
17566;SDS011;8901;52.088;5.084;2022-12-29T05:17:12;12.10;;;10.90;;
17566;SDS011;8901;52.088;5.084;2022-12-29T05:19:40;10.73;;;10.00;;
17566;SDS011;8901;52.088;5.084;2022-12-29T05:22:07;11.37;;;10.23;;
17566;SDS011;8901;52.088;5.084;2022-12-29T05:24:35;11.23;;;10.27;;
17566;SDS011;8901;52.088;5.084;2022-12-29T05:27:02;11.20;;;10.27;;
17566;SDS011;8901;52.088;5.084;2022-12-29T05:29:29;10.63;;;9.80;;
17566;SDS011;8901;52.088;5.084;2022-12-29T05:31:56;12.83;;;10.97;;
17566;SDS011;8901;52.088;5.084;2022-12-29T05:34:23;10.53;;;9.43;;
17566;SDS011;8901;52.088;5.084;2022-12-29T05:36:52;11.27;;;10.17;;
17566;SDS011;8901;52.088;5.084;2022-12-29T05:39:19;11.57;;;10.57;;
17566;SDS011;8901;52.088;5.084;2022-12-29T05:41:47;12.07;;;10.90;;
17566;SDS011;8901;52.088;5.084;2022-12-29T05:47:07;11.43;;;10.37;;
17566;SDS011;8901;52.088;5.084;2022-12-29T05:52:07;11.30;;;10.20;;
17566;SDS011;8901;52.088;5.084;2022-12-29T05:54:34;11.90;;;10.53;;
17566;SDS011;8901;52.088;5.084;2022-12-29T05:57:01;14.47;;;10.90;;
17566;SDS011;8901;52.088;5.084;2022-12-29T05:59:28;13.23;;;10.07;;
17566;SDS011;8901;52.088;5.084;2022-12-29T06:01:55;9.20;;;8.67;;
17566;SDS011;8901;52.088;5.084;2022-12-29T06:04:23;10.80;;;9.47;;
17566;SDS011;8901;52.088;5.084;2022-12-29T06:06:50;11.47;;;10.13;;
17566;SDS011;8901;52.088;5.084;2022-12-29T06:09:19;10.33;;;9.53;;
17566;SDS011;8901;52.088;5.084;2022-12-29T06:11:46;13.97;;;11.63;;
17566;SDS011;8901;52.088;5.084;2022-12-29T06:14:13;15.10;;;10.80;;
17566;SDS011;8901;52.088;5.084;2022-12-29T06:16:40;11.37;;;10.23;;
17566;SDS011;8901;52.088;5.084;2022-12-29T06:19:08;12.07;;;10.30;;
17566;SDS011;8901;52.088;5.084;2022-12-29T06:21:35;13.00;;;11.13;;
17566;SDS011;8901;52.088;5.084;2022-12-29T06:24:03;10.57;;;9.30;;
17566;SDS011;8901;52.088;5.084;2022-12-29T06:26:32;11.10;;;9.90;;
17566;SDS011;8901;52.088;5.084;2022-12-29T06:28:59;9.43;;;8.67;;
17566;SDS011;8901;52.088;5.084;2022-12-29T06:31:27;12.37;;;10.40;;
17566;SDS011;8901;52.088;5.084;2022-12-29T06:33:55;13.97;;;9.03;;
17566;SDS011;8901;52.088;5.084;2022-12-29T06:36:22;15.33;;;10.13;;
17566;SDS011;8901;52.088;5.084;2022-12-29T06:38:49;12.67;;;9.07;;
17566;SDS011;8901;52.088;5.084;2022-12-29T06:41:17;11.30;;;10.20;;
17566;SDS011;8901;52.088;5.084;2022-12-29T06:43:46;11.70;;;9.87;;
17566;SDS011;8901;52.088;5.084;2022-12-29T06:46:13;10.80;;;9.80;;
17566;SDS011;8901;52.088;5.084;2022-12-29T06:48:40;13.87;;;11.70;;
17566;SDS011;8901;52.088;5.084;2022-12-29T06:51:08;13.00;;;11.70;;
17566;SDS011;8901;52.088;5.084;2022-12-29T06:53:35;12.20;;;10.33;;
17566;SDS011;8901;52.088;5.084;2022-12-29T06:56:02;14.90;;;10.53;;
17566;SDS011;8901;52.088;5.084;2022-12-29T06:58:30;11.33;;;10.07;;
17566;SDS011;8901;52.088;5.084;2022-12-29T07:00:58;11.13;;;9.97;;
17566;SDS011;8901;52.088;5.084;2022-12-29T07:03:25;11.00;;;10.00;;
17566;SDS011;8901;52.088;5.084;2022-12-29T07:05:53;10.37;;;9.33;;
17566;SDS011;8901;52.088;5.084;2022-12-29T07:08:20;9.17;;;8.27;;
17566;SDS011;8901;52.088;5.084;2022-12-29T07:10:47;10.27;;;8.37;;
17566;SDS011;8901;52.088;5.084;2022-12-29T07:13:14;10.57;;;9.60;;
17566;SDS011;8901;52.088;5.084;2022-12-29T07:15:42;9.50;;;8.53;;
17566;SDS011;8901;52.088;5.084;2022-12-29T07:18:10;8.80;;;7.97;;
17566;SDS011;8901;52.088;5.084;2022-12-29T07:20:37;13.27;;;8.87;;
17566;SDS011;8901;52.088;5.084;2022-12-29T07:23:05;10.40;;;9.03;;
17566;SDS011;8901;52.088;5.084;2022-12-29T07:25:32;14.00;;;9.03;;
17566;SDS011;8901;52.088;5.084;2022-12-29T07:28:00;10.47;;;9.33;;
17566;SDS011;8901;52.088;5.084;2022-12-29T07:30:27;9.73;;;8.70;;
17566;SDS011;8901;52.088;5.084;2022-12-29T07:32:54;9.27;;;8.37;;
17566;SDS011;8901;52.088;5.084;2022-12-29T07:35:23;10.00;;;8.53;;
17566;SDS011;8901;52.088;5.084;2022-12-29T07:37:50;9.70;;;8.70;;
17566;SDS011;8901;52.088;5.084;2022-12-29T07:40:17;11.70;;;9.93;;
17566;SDS011;8901;52.088;5.084;2022-12-29T07:42:45;11.87;;;9.50;;
17566;SDS011;8901;52.088;5.084;2022-12-29T07:45:12;12.20;;;9.33;;
17566;SDS011;8901;52.088;5.084;2022-12-29T07:47:39;13.17;;;9.00;;
17566;SDS011;8901;52.088;5.084;2022-12-29T07:50:06;12.30;;;9.27;;
17566;SDS011;8901;52.088;5.084;2022-12-29T07:52:37;9.63;;;8.83;;
17566;SDS011;8901;52.088;5.084;2022-12-29T07:55:04;10.07;;;9.30;;
17566;SDS011;8901;52.088;5.084;2022-12-29T07:57:31;10.97;;;9.70;;
17566;SDS011;8901;52.088;5.084;2022-12-29T07:59:59;11.27;;;10.10;;
17566;SDS011;8901;52.088;5.084;2022-12-29T08:02:26;10.77;;;9.67;;
17566;SDS011;8901;52.088;5.084;2022-12-29T08:04:53;11.10;;;10.00;;
17566;SDS011;8901;52.088;5.084;2022-12-29T08:07:20;10.70;;;9.40;;
17566;SDS011;8901;52.088;5.084;2022-12-29T08:09:49;9.53;;;8.57;;
17566;SDS011;8901;52.088;5.084;2022-12-29T08:12:16;10.30;;;9.30;;
17566;SDS011;8901;52.088;5.084;2022-12-29T08:14:43;13.83;;;9.87;;
17566;SDS011;8901;52.088;5.084;2022-12-29T08:17:11;13.67;;;10.00;;
17566;SDS011;8901;52.088;5.084;2022-12-29T08:19:38;10.27;;;9.37;;
17566;SDS011;8901;52.088;5.084;2022-12-29T08:22:06;11.83;;;9.77;;
17566;SDS011;8901;52.088;5.084;2022-12-29T08:24:33;17.10;;;10.73;;
17566;SDS011;8901;52.088;5.084;2022-12-29T08:27:01;10.93;;;9.80;;
17566;SDS011;8901;52.088;5.084;2022-12-29T08:29:29;11.37;;;9.57;;
17566;SDS011;8901;52.088;5.084;2022-12-29T08:31:56;15.73;;;9.83;;
17566;SDS011;8901;52.088;5.084;2022-12-29T08:34:23;11.37;;;9.60;;
17566;SDS011;8901;52.088;5.084;2022-12-29T08:36:50;11.23;;;10.10;;
17566;SDS011;8901;52.088;5.084;2022-12-29T08:39:17;15.87;;;10.10;;
17566;SDS011;8901;52.088;5.084;2022-12-29T08:41:44;10.80;;;9.70;;
17566;SDS011;8901;52.088;5.084;2022-12-29T08:44:13;12.30;;;10.60;;
17566;SDS011;8901;52.088;5.084;2022-12-29T08:46:40;14.60;;;10.00;;
17566;SDS011;8901;52.088;5.084;2022-12-29T08:49:07;16.03;;;11.27;;
17566;SDS011;8901;52.088;5.084;2022-12-29T08:51:35;15.13;;;10.23;;
17566;SDS011;8901;52.088;5.084;2022-12-29T08:54:02;12.37;;;8.77;;
17566;SDS011;8901;52.088;5.084;2022-12-29T08:56:29;11.60;;;8.90;;
17566;SDS011;8901;52.088;5.084;2022-12-29T08:58:56;16.33;;;9.00;;
17566;SDS011;8901;52.088;5.084;2022-12-29T09:01:25;15.33;;;8.80;;
17566;SDS011;8901;52.088;5.084;2022-12-29T09:03:52;9.37;;;8.53;;
17566;SDS011;8901;52.088;5.084;2022-12-29T09:06:20;15.27;;;7.63;;
17566;SDS011;8901;52.088;5.084;2022-12-29T09:08:47;11.60;;;8.73;;
17566;SDS011;8901;52.088;5.084;2022-12-29T09:11:15;9.03;;;7.20;;
17566;SDS011;8901;52.088;5.084;2022-12-29T09:13:42;12.50;;;8.57;;
17566;SDS011;8901;52.088;5.084;2022-12-29T09:16:10;13.20;;;8.80;;
17566;SDS011;8901;52.088;5.084;2022-12-29T09:18:39;12.10;;;8.20;;
17566;SDS011;8901;52.088;5.084;2022-12-29T09:21:06;11.33;;;8.30;;
17566;SDS011;8901;52.088;5.084;2022-12-29T09:23:34;9.60;;;7.07;;
17566;SDS011;8901;52.088;5.084;2022-12-29T09:26:01;12.60;;;9.00;;
17566;SDS011;8901;52.088;5.084;2022-12-29T09:28:28;9.77;;;7.20;;
17566;SDS011;8901;52.088;5.084;2022-12-29T09:30:56;9.33;;;7.77;;
17566;SDS011;8901;52.088;5.084;2022-12-29T09:33:23;8.77;;;6.97;;
17566;SDS011;8901;52.088;5.084;2022-12-29T09:35:52;11.40;;;7.30;;
17566;SDS011;8901;52.088;5.084;2022-12-29T09:38:20;8.27;;;7.47;;
17566;SDS011;8901;52.088;5.084;2022-12-29T09:40:49;7.80;;;7.10;;
17566;SDS011;8901;52.088;5.084;2022-12-29T09:43:23;11.00;;;7.80;;
17566;SDS011;8901;52.088;5.084;2022-12-29T09:45:55;8.87;;;7.30;;
17566;SDS011;8901;52.088;5.084;2022-12-29T09:48:28;9.40;;;7.63;;
17566;SDS011;8901;52.088;5.084;2022-12-29T09:50:58;9.50;;;7.20;;
17566;SDS011;8901;52.088;5.084;2022-12-29T09:53:27;7.73;;;6.67;;
17566;SDS011;8901;52.088;5.084;2022-12-29T09:55:57;7.70;;;6.90;;
17566;SDS011;8901;52.088;5.084;2022-12-29T09:58:26;9.33;;;6.70;;
17566;SDS011;8901;52.088;5.084;2022-12-29T10:00:56;11.70;;;7.90;;
17566;SDS011;8901;52.088;5.084;2022-12-29T10:03:28;8.37;;;7.57;;
17566;SDS011;8901;52.088;5.084;2022-12-29T10:06:02;9.77;;;7.47;;
17566;SDS011;8901;52.088;5.084;2022-12-29T10:08:34;9.03;;;6.53;;
17566;SDS011;8901;52.088;5.084;2022-12-29T10:11:06;6.97;;;6.27;;
17566;SDS011;8901;52.088;5.084;2022-12-29T10:13:38;10.10;;;6.77;;
17566;SDS011;8901;52.088;5.084;2022-12-29T10:16:08;10.53;;;7.53;;
17566;SDS011;8901;52.088;5.084;2022-12-29T10:18:56;6.80;;;6.20;;
17566;SDS011;8901;52.088;5.084;2022-12-29T10:21:28;7.60;;;6.83;;
17566;SDS011;8901;52.088;5.084;2022-12-29T10:24:01;7.07;;;6.40;;
17566;SDS011;8901;52.088;5.084;2022-12-29T10:26:31;10.40;;;6.97;;
17566;SDS011;8901;52.088;5.084;2022-12-29T10:29:02;7.60;;;6.87;;
17566;SDS011;8901;52.088;5.084;2022-12-29T10:31:31;8.63;;;6.90;;
17566;SDS011;8901;52.088;5.084;2022-12-29T10:34:01;6.57;;;5.97;;
17566;SDS011;8901;52.088;5.084;2022-12-29T10:36:33;7.00;;;6.33;;
17566;SDS011;8901;52.088;5.084;2022-12-29T10:39:02;13.83;;;7.60;;
17566;SDS011;8901;52.088;5.084;2022-12-29T10:41:34;11.77;;;6.83;;
17566;SDS011;8901;52.088;5.084;2022-12-29T10:44:03;7.93;;;5.97;;
17566;SDS011;8901;52.088;5.084;2022-12-29T10:46:30;10.37;;;6.90;;
17566;SDS011;8901;52.088;5.084;2022-12-29T10:49:00;10.97;;;8.00;;
17566;SDS011;8901;52.088;5.084;2022-12-29T10:51:28;8.90;;;6.60;;
17566;SDS011;8901;52.088;5.084;2022-12-29T10:53:59;12.60;;;7.00;;
17566;SDS011;8901;52.088;5.084;2022-12-29T10:56:30;13.37;;;8.03;;
17566;SDS011;8901;52.088;5.084;2022-12-29T10:59:01;15.47;;;7.30;;
17566;SDS011;8901;52.088;5.084;2022-12-29T11:01:31;11.87;;;7.10;;
17566;SDS011;8901;52.088;5.084;2022-12-29T11:03:59;10.80;;;5.97;;
17566;SDS011;8901;52.088;5.084;2022-12-29T11:06:29;10.20;;;6.63;;
17566;SDS011;8901;52.088;5.084;2022-12-29T11:08:59;9.77;;;6.60;;
17566;SDS011;8901;52.088;5.084;2022-12-29T11:11:32;13.17;;;7.70;;
17566;SDS011;8901;52.088;5.084;2022-12-29T11:14:02;9.73;;;7.10;;
17566;SDS011;8901;52.088;5.084;2022-12-29T11:16:29;12.10;;;8.40;;
17566;SDS011;8901;52.088;5.084;2022-12-29T11:18:57;14.57;;;8.77;;
17566;SDS011;8901;52.088;5.084;2022-12-29T11:21:30;12.70;;;8.00;;
17566;SDS011;8901;52.088;5.084;2022-12-29T11:24:00;11.40;;;7.20;;
17566;SDS011;8901;52.088;5.084;2022-12-29T11:26:28;11.20;;;7.90;;
17566;SDS011;8901;52.088;5.084;2022-12-29T11:29:16;13.00;;;7.70;;
17566;SDS011;8901;52.088;5.084;2022-12-29T11:31:45;10.67;;;7.57;;
17566;SDS011;8901;52.088;5.084;2022-12-29T11:34:16;12.83;;;8.00;;
17566;SDS011;8901;52.088;5.084;2022-12-29T11:36:43;15.50;;;6.97;;
17566;SDS011;8901;52.088;5.084;2022-12-29T11:39:22;15.70;;;8.77;;
17566;SDS011;8901;52.088;5.084;2022-12-29T11:41:51;15.40;;;8.30;;
17566;SDS011;8901;52.088;5.084;2022-12-29T11:44:19;17.33;;;9.10;;
17566;SDS011;8901;52.088;5.084;2022-12-29T11:46:47;16.90;;;9.20;;
17566;SDS011;8901;52.088;5.084;2022-12-29T11:49:18;14.03;;;7.40;;
17566;SDS011;8901;52.088;5.084;2022-12-29T11:51:46;12.70;;;7.83;;
17566;SDS011;8901;52.088;5.084;2022-12-29T11:54:15;17.13;;;9.43;;
17566;SDS011;8901;52.088;5.084;2022-12-29T11:56:46;13.57;;;8.33;;
17566;SDS011;8901;52.088;5.084;2022-12-29T12:02:00;12.37;;;7.60;;
17566;SDS011;8901;52.088;5.084;2022-12-29T12:04:30;13.27;;;7.87;;
17566;SDS011;8901;52.088;5.084;2022-12-29T12:07:02;14.73;;;8.10;;
17566;SDS011;8901;52.088;5.084;2022-12-29T12:09:32;13.33;;;7.93;;
17566;SDS011;8901;52.088;5.084;2022-12-29T12:12:15;16.60;;;7.97;;
17566;SDS011;8901;52.088;5.084;2022-12-29T12:14:46;15.93;;;8.87;;
17566;SDS011;8901;52.088;5.084;2022-12-29T12:17:19;14.00;;;8.13;;
17566;SDS011;8901;52.088;5.084;2022-12-29T12:19:50;18.03;;;9.70;;
17566;SDS011;8901;52.088;5.084;2022-12-29T12:22:21;18.40;;;9.40;;
17566;SDS011;8901;52.088;5.084;2022-12-29T12:24:52;20.53;;;9.50;;
17566;SDS011;8901;52.088;5.084;2022-12-29T12:27:23;13.97;;;8.87;;
17566;SDS011;8901;52.088;5.084;2022-12-29T12:29:52;13.93;;;7.57;;
17566;SDS011;8901;52.088;5.084;2022-12-29T12:32:29;14.27;;;7.73;;
17566;SDS011;8901;52.088;5.084;2022-12-29T12:35:03;16.70;;;8.50;;
17566;SDS011;8901;52.088;5.084;2022-12-29T12:37:37;16.33;;;8.57;;
17566;SDS011;8901;52.088;5.084;2022-12-29T12:40:12;14.40;;;9.10;;
17566;SDS011;8901;52.088;5.084;2022-12-29T12:42:48;12.57;;;7.13;;
17566;SDS011;8901;52.088;5.084;2022-12-29T12:45:27;15.37;;;7.87;;
17566;SDS011;8901;52.088;5.084;2022-12-29T12:48:01;12.97;;;8.23;;
17566;SDS011;8901;52.088;5.084;2022-12-29T12:50:35;16.87;;;8.53;;
17566;SDS011;8901;52.088;5.084;2022-12-29T12:53:10;11.43;;;7.83;;
17566;SDS011;8901;52.088;5.084;2022-12-29T12:55:46;14.03;;;7.50;;
17566;SDS011;8901;52.088;5.084;2022-12-29T12:58:17;15.43;;;7.60;;
17566;SDS011;8901;52.088;5.084;2022-12-29T13:00:49;13.30;;;7.83;;
17566;SDS011;8901;52.088;5.084;2022-12-29T13:03:22;10.73;;;7.97;;
17566;SDS011;8901;52.088;5.084;2022-12-29T13:06:04;13.27;;;8.03;;
17566;SDS011;8901;52.088;5.084;2022-12-29T13:08:41;13.83;;;7.97;;
17566;SDS011;8901;52.088;5.084;2022-12-29T13:11:13;12.30;;;8.27;;
17566;SDS011;8901;52.088;5.084;2022-12-29T13:13:54;13.67;;;7.10;;
17566;SDS011;8901;52.088;5.084;2022-12-29T13:16:27;16.17;;;7.87;;
17566;SDS011;8901;52.088;5.084;2022-12-29T13:18:58;12.07;;;7.20;;
17566;SDS011;8901;52.088;5.084;2022-12-29T13:21:33;12.13;;;7.87;;
17566;SDS011;8901;52.088;5.084;2022-12-29T13:24:02;12.77;;;8.30;;
17566;SDS011;8901;52.088;5.084;2022-12-29T13:26:31;13.00;;;8.30;;
17566;SDS011;8901;52.088;5.084;2022-12-29T13:29:04;12.27;;;7.93;;
17566;SDS011;8901;52.088;5.084;2022-12-29T13:31:35;12.00;;;7.87;;
17566;SDS011;8901;52.088;5.084;2022-12-29T13:34:05;12.17;;;9.03;;
17566;SDS011;8901;52.088;5.084;2022-12-29T13:36:42;15.47;;;7.50;;
17566;SDS011;8901;52.088;5.084;2022-12-29T13:39:10;14.87;;;8.53;;
17566;SDS011;8901;52.088;5.084;2022-12-29T13:41:45;15.63;;;8.30;;
17566;SDS011;8901;52.088;5.084;2022-12-29T13:44:15;12.13;;;8.20;;
17566;SDS011;8901;52.088;5.084;2022-12-29T13:49:13;14.77;;;7.93;;
17566;SDS011;8901;52.088;5.084;2022-12-29T13:51:47;12.87;;;8.40;;
17566;SDS011;8901;52.088;5.084;2022-12-29T14:00:11;13.83;;;7.93;;
17566;SDS011;8901;52.088;5.084;2022-12-29T14:06:03;8.73;;;7.10;;
17566;SDS011;8901;52.088;5.084;2022-12-29T14:08:43;8.73;;;7.00;;
17566;SDS011;8901;52.088;5.084;2022-12-29T14:11:11;7.80;;;7.00;;
17566;SDS011;8901;52.088;5.084;2022-12-29T14:13:41;9.03;;;6.30;;
17566;SDS011;8901;52.088;5.084;2022-12-29T14:16:21;7.60;;;6.23;;
17566;SDS011;8901;52.088;5.084;2022-12-29T14:18:52;6.83;;;6.10;;
17566;SDS011;8901;52.088;5.084;2022-12-29T14:21:21;7.83;;;6.50;;
17566;SDS011;8901;52.088;5.084;2022-12-29T14:24:02;6.83;;;5.87;;
17566;SDS011;8901;52.088;5.084;2022-12-29T14:26:54;9.60;;;6.13;;
17566;SDS011;8901;52.088;5.084;2022-12-29T14:37:48;7.17;;;6.10;;
17566;SDS011;8901;52.088;5.084;2022-12-29T14:40:32;8.23;;;7.50;;
17566;SDS011;8901;52.088;5.084;2022-12-29T14:43:05;8.37;;;6.87;;
17566;SDS011;8901;52.088;5.084;2022-12-29T14:45:40;9.00;;;6.20;;
17566;SDS011;8901;52.088;5.084;2022-12-29T14:48:21;7.73;;;6.47;;
17566;SDS011;8901;52.088;5.084;2022-12-29T14:50:55;11.20;;;7.60;;
17566;SDS011;8901;52.088;5.084;2022-12-29T14:53:41;11.57;;;7.30;;
17566;SDS011;8901;52.088;5.084;2022-12-29T14:56:10;8.80;;;7.20;;
17566;SDS011;8901;52.088;5.084;2022-12-29T14:58:41;7.50;;;6.83;;
17566;SDS011;8901;52.088;5.084;2022-12-29T15:01:18;11.03;;;6.90;;
17566;SDS011;8901;52.088;5.084;2022-12-29T15:03:47;8.97;;;6.60;;
17566;SDS011;8901;52.088;5.084;2022-12-29T15:06:16;9.53;;;6.83;;
17566;SDS011;8901;52.088;5.084;2022-12-29T15:08:48;9.77;;;7.40;;
17566;SDS011;8901;52.088;5.084;2022-12-29T15:11:17;11.63;;;7.90;;
17566;SDS011;8901;52.088;5.084;2022-12-29T15:13:46;8.20;;;7.13;;
17566;SDS011;8901;52.088;5.084;2022-12-29T15:16:21;9.43;;;7.73;;
17566;SDS011;8901;52.088;5.084;2022-12-29T15:18:49;10.00;;;7.10;;
17566;SDS011;8901;52.088;5.084;2022-12-29T15:21:16;9.60;;;7.57;;
17566;SDS011;8901;52.088;5.084;2022-12-29T15:23:44;8.37;;;6.67;;
17566;SDS011;8901;52.088;5.084;2022-12-29T15:26:13;9.83;;;7.67;;
17566;SDS011;8901;52.088;5.084;2022-12-29T15:28:47;9.87;;;6.57;;
17566;SDS011;8901;52.088;5.084;2022-12-29T15:31:16;7.43;;;6.50;;
17566;SDS011;8901;52.088;5.084;2022-12-29T15:33:44;8.37;;;7.30;;
17566;SDS011;8901;52.088;5.084;2022-12-29T15:36:14;7.80;;;7.00;;
17566;SDS011;8901;52.088;5.084;2022-12-29T15:38:41;8.27;;;7.40;;
17566;SDS011;8901;52.088;5.084;2022-12-29T15:41:13;8.00;;;6.90;;
17566;SDS011;8901;52.088;5.084;2022-12-29T15:43:47;9.93;;;7.87;;
17566;SDS011;8901;52.088;5.084;2022-12-29T15:46:17;7.47;;;6.87;;
17566;SDS011;8901;52.088;5.084;2022-12-29T15:48:44;7.90;;;6.67;;
17566;SDS011;8901;52.088;5.084;2022-12-29T15:51:17;8.73;;;6.80;;
17566;SDS011;8901;52.088;5.084;2022-12-29T15:53:47;9.00;;;7.53;;
17566;SDS011;8901;52.088;5.084;2022-12-29T15:56:15;8.97;;;7.57;;
17566;SDS011;8901;52.088;5.084;2022-12-29T15:58:44;9.20;;;7.60;;
17566;SDS011;8901;52.088;5.084;2022-12-29T16:01:19;12.73;;;10.07;;
17566;SDS011;8901;52.088;5.084;2022-12-29T16:03:46;10.17;;;7.30;;
17566;SDS011;8901;52.088;5.084;2022-12-29T16:06:33;8.00;;;7.30;;
17566;SDS011;8901;52.088;5.084;2022-12-29T16:09:02;9.90;;;7.60;;
17566;SDS011;8901;52.088;5.084;2022-12-29T16:11:31;7.50;;;6.90;;
17566;SDS011;8901;52.088;5.084;2022-12-29T16:14:01;9.13;;;8.20;;
17566;SDS011;8901;52.088;5.084;2022-12-29T16:16:31;8.70;;;7.80;;
17566;SDS011;8901;52.088;5.084;2022-12-29T16:19:01;7.80;;;6.77;;
17566;SDS011;8901;52.088;5.084;2022-12-29T16:21:40;8.73;;;7.33;;
17566;SDS011;8901;52.088;5.084;2022-12-29T16:24:15;7.80;;;7.20;;